sensor_id;sensor_type;location;lat;lon;timestamp;pressure;altitude;pressure_sealevel;temperature
74043;BMP280;62384;53.600;10.040;2023-02-04T00:00:08;65512.69;;;4.46
74043;BMP280;62384;53.600;10.040;2023-02-04T00:02:33;66265.88;;;4.46
74043;BMP280;62384;53.600;10.040;2023-02-04T00:04:59;65791.47;;;4.55
74043;BMP280;62384;53.600;10.040;2023-02-04T00:07:24;66523.81;;;4.54
74043;BMP280;62384;53.600;10.040;2023-02-04T00:09:53;67349.47;;;4.52
74043;BMP280;62384;53.600;10.040;2023-02-04T00:12:18;67116.25;;;4.50
74043;BMP280;62384;53.600;10.040;2023-02-04T00:14:44;66666.19;;;4.55
74043;BMP280;62384;53.600;10.040;2023-02-04T00:17:09;66896.88;;;4.54
74043;BMP280;62384;53.600;10.040;2023-02-04T00:19:37;67256.84;;;4.44
74043;BMP280;62384;53.600;10.040;2023-02-04T00:22:06;67298.72;;;4.35
74043;BMP280;62384;53.600;10.040;2023-02-04T00:24:32;67429.50;;;4.24
74043;BMP280;62384;53.600;10.040;2023-02-04T00:26:58;66627.16;;;4.20
74043;BMP280;62384;53.600;10.040;2023-02-04T00:29:23;66814.00;;;4.13
74043;BMP280;62384;53.600;10.040;2023-02-04T00:31:48;66214.91;;;4.04
74043;BMP280;62384;53.600;10.040;2023-02-04T00:34:13;65914.56;;;4.06
74043;BMP280;62384;53.600;10.040;2023-02-04T00:36:39;65769.44;;;4.02
74043;BMP280;62384;53.600;10.040;2023-02-04T00:39:04;65374.47;;;3.93
74043;BMP280;62384;53.600;10.040;2023-02-04T00:41:29;65833.59;;;3.93
74043;BMP280;62384;53.600;10.040;2023-02-04T00:43:57;65819.81;;;3.95
74043;BMP280;62384;53.600;10.040;2023-02-04T00:46:23;65212.59;;;3.96
74043;BMP280;62384;53.600;10.040;2023-02-04T00:48:48;65643.41;;;3.89
74043;BMP280;62384;53.600;10.040;2023-02-04T00:51:13;65115.09;;;3.82
74043;BMP280;62384;53.600;10.040;2023-02-04T00:53:38;65074.78;;;3.81
74043;BMP280;62384;53.600;10.040;2023-02-04T00:56:04;64822.75;;;3.78
74043;BMP280;62384;53.600;10.040;2023-02-04T00:58:29;64581.25;;;3.69
74043;BMP280;62384;53.600;10.040;2023-02-04T01:00:55;63531.59;;;3.71
74043;BMP280;62384;53.600;10.040;2023-02-04T01:03:20;63500.59;;;3.71
74043;BMP280;62384;53.600;10.040;2023-02-04T01:05:45;63411.81;;;3.83
74043;BMP280;62384;53.600;10.040;2023-02-04T01:08:10;63063.78;;;3.92
74043;BMP280;62384;53.600;10.040;2023-02-04T01:10:38;63882.16;;;3.98
74043;BMP280;62384;53.600;10.040;2023-02-04T01:13:07;64030.66;;;4.03
74043;BMP280;62384;53.600;10.040;2023-02-04T01:15:33;64527.75;;;3.99
74043;BMP280;62384;53.600;10.040;2023-02-04T01:17:59;63919.81;;;3.99
74043;BMP280;62384;53.600;10.040;2023-02-04T01:20:24;64131.75;;;3.93
74043;BMP280;62384;53.600;10.040;2023-02-04T01:22:49;63925.38;;;3.86
74043;BMP280;62384;53.600;10.040;2023-02-04T01:25:14;63681.56;;;3.86
74043;BMP280;62384;53.600;10.040;2023-02-04T01:27:43;63532.34;;;3.89
74043;BMP280;62384;53.600;10.040;2023-02-04T01:30:10;63858.63;;;3.87
74043;BMP280;62384;53.600;10.040;2023-02-04T01:32:35;63932.03;;;3.87
74043;BMP280;62384;53.600;10.040;2023-02-04T01:35:01;63498.00;;;3.91
74043;BMP280;62384;53.600;10.040;2023-02-04T01:37:26;63472.72;;;3.92
74043;BMP280;62384;53.600;10.040;2023-02-04T01:39:54;63302.50;;;3.95
74043;BMP280;62384;53.600;10.040;2023-02-04T01:42:20;63248.59;;;3.99
74043;BMP280;62384;53.600;10.040;2023-02-04T01:44:48;64221.63;;;4.02
74043;BMP280;62384;53.600;10.040;2023-02-04T01:47:14;64075.25;;;4.03
74043;BMP280;62384;53.600;10.040;2023-02-04T01:49:40;64304.63;;;4.07
74043;BMP280;62384;53.600;10.040;2023-02-04T01:52:05;63850.41;;;4.06
74043;BMP280;62384;53.600;10.040;2023-02-04T01:54:31;64047.31;;;4.09
74043;BMP280;62384;53.600;10.040;2023-02-04T01:56:56;64014.19;;;4.10
74043;BMP280;62384;53.600;10.040;2023-02-04T01:59:21;64101.44;;;4.08
74043;BMP280;62384;53.600;10.040;2023-02-04T02:01:49;63930.72;;;4.11
74043;BMP280;62384;53.600;10.040;2023-02-04T02:04:23;63569.47;;;4.14
74043;BMP280;62384;53.600;10.040;2023-02-04T02:06:54;63249.91;;;4.20
74043;BMP280;62384;53.600;10.040;2023-02-04T02:09:21;64070.66;;;4.17
74043;BMP280;62384;53.600;10.040;2023-02-04T02:11:47;64054.69;;;4.14
74043;BMP280;62384;53.600;10.040;2023-02-04T02:14:13;63541.63;;;4.10
74043;BMP280;62384;53.600;10.040;2023-02-04T02:16:38;62842.91;;;4.03
74043;BMP280;62384;53.600;10.040;2023-02-04T02:19:05;62406.84;;;4.02
74043;BMP280;62384;53.600;10.040;2023-02-04T02:21:39;62457.59;;;3.94
74043;BMP280;62384;53.600;10.040;2023-02-04T02:24:29;61505.16;;;3.96
74043;BMP280;62384;53.600;10.040;2023-02-04T02:26:56;60872.88;;;3.92
74043;BMP280;62384;53.600;10.040;2023-02-04T02:29:26;61042.66;;;3.91
74043;BMP280;62384;53.600;10.040;2023-02-04T02:31:58;60868.38;;;3.87
74043;BMP280;62384;53.600;10.040;2023-02-04T02:34:25;60365.94;;;3.81
74043;BMP280;62384;53.600;10.040;2023-02-04T02:36:51;59802.56;;;3.71
74043;BMP280;62384;53.600;10.040;2023-02-04T02:39:19;59427.88;;;3.65
74043;BMP280;62384;53.600;10.040;2023-02-04T02:41:45;58967.88;;;3.59
74043;BMP280;62384;53.600;10.040;2023-02-04T02:44:12;58568.97;;;3.58
74043;BMP280;62384;53.600;10.040;2023-02-04T02:50:20;58782.25;;;3.47
74043;BMP280;62384;53.600;10.040;2023-02-04T02:52:47;58105.75;;;3.30
74043;BMP280;62384;53.600;10.040;2023-02-04T02:55:21;57317.09;;;3.37
74043;BMP280;62384;53.600;10.040;2023-02-04T02:57:48;57261.78;;;3.36
74043;BMP280;62384;53.600;10.040;2023-02-04T03:00:25;56731.97;;;3.31
74043;BMP280;62384;53.600;10.040;2023-02-04T03:05:21;56491.91;;;3.24
74043;BMP280;62384;53.600;10.040;2023-02-04T03:07:46;56303.56;;;3.21
74043;BMP280;62384;53.600;10.040;2023-02-04T03:10:12;56377.25;;;3.18
74043;BMP280;62384;53.600;10.040;2023-02-04T03:12:37;56262.47;;;3.15
74043;BMP280;62384;53.600;10.040;2023-02-04T03:15:03;56298.38;;;3.11
74043;BMP280;62384;53.600;10.040;2023-02-04T03:17:29;56142.66;;;3.09
74043;BMP280;62384;53.600;10.040;2023-02-04T03:19:55;56095.66;;;3.09
74043;BMP280;62384;53.600;10.040;2023-02-04T03:22:21;56187.03;;;3.09
74043;BMP280;62384;53.600;10.040;2023-02-04T03:24:46;56341.25;;;3.06
74043;BMP280;62384;53.600;10.040;2023-02-04T03:27:13;55973.81;;;3.01
74043;BMP280;62384;53.600;10.040;2023-02-04T03:29:42;56076.59;;;2.99
74043;BMP280;62384;53.600;10.040;2023-02-04T03:32:08;56023.97;;;2.98
74043;BMP280;62384;53.600;10.040;2023-02-04T03:34:33;56037.94;;;2.90
74043;BMP280;62384;53.600;10.040;2023-02-04T03:36:58;56033.94;;;2.91
74043;BMP280;62384;53.600;10.040;2023-02-04T03:39:23;56011.75;;;2.83
74043;BMP280;62384;53.600;10.040;2023-02-04T03:41:49;55792.50;;;2.83
74043;BMP280;62384;53.600;10.040;2023-02-04T03:44:14;55481.59;;;2.89
74043;BMP280;62384;53.600;10.040;2023-02-04T03:46:39;56009.63;;;2.90
74043;BMP280;62384;53.600;10.040;2023-02-04T03:49:04;56007.59;;;2.88
74043;BMP280;62384;53.600;10.040;2023-02-04T03:51:30;55770.06;;;2.88
74043;BMP280;62384;53.600;10.040;2023-02-04T03:53:55;55582.16;;;2.88
74043;BMP280;62384;53.600;10.040;2023-02-04T03:56:20;55969.16;;;2.98
74043;BMP280;62384;53.600;10.040;2023-02-04T03:58:46;56136.09;;;3.01
74043;BMP280;62384;53.600;10.040;2023-02-04T04:01:11;56224.03;;;3.10
74043;BMP280;62384;53.600;10.040;2023-02-04T04:03:36;56822.38;;;3.13
74043;BMP280;62384;53.600;10.040;2023-02-04T04:06:02;56858.16;;;3.22
74043;BMP280;62384;53.600;10.040;2023-02-04T04:08:30;57699.41;;;3.25
74043;BMP280;62384;53.600;10.040;2023-02-04T04:10:55;57887.09;;;3.28
74043;BMP280;62384;53.600;10.040;2023-02-04T04:13:20;58264.75;;;3.29
74043;BMP280;62384;53.600;10.040;2023-02-04T04:15:46;59250.88;;;3.42
74043;BMP280;62384;53.600;10.040;2023-02-04T04:18:11;58913.44;;;3.48
74043;BMP280;62384;53.600;10.040;2023-02-04T04:20:36;59659.81;;;3.46
74043;BMP280;62384;53.600;10.040;2023-02-04T04:23:01;59843.38;;;3.46
74043;BMP280;62384;53.600;10.040;2023-02-04T04:25:27;59726.09;;;3.47
74043;BMP280;62384;53.600;10.040;2023-02-04T04:27:52;60162.13;;;3.46
74043;BMP280;62384;53.600;10.040;2023-02-04T04:30:17;60805.44;;;3.45
74043;BMP280;62384;53.600;10.040;2023-02-04T04:32:43;60078.47;;;3.52
74043;BMP280;62384;53.600;10.040;2023-02-04T04:35:08;60046.22;;;3.54
74043;BMP280;62384;53.600;10.040;2023-02-04T04:37:33;59816.81;;;3.52
74043;BMP280;62384;53.600;10.040;2023-02-04T04:39:59;59921.94;;;3.55
74043;BMP280;62384;53.600;10.040;2023-02-04T04:42:25;60099.38;;;3.49
74043;BMP280;62384;53.600;10.040;2023-02-04T04:44:50;60281.69;;;3.51
74043;BMP280;62384;53.600;10.040;2023-02-04T04:47:16;60460.03;;;3.48
74043;BMP280;62384;53.600;10.040;2023-02-04T04:49:41;60671.06;;;3.44
74043;BMP280;62384;53.600;10.040;2023-02-04T04:52:06;60435.94;;;3.42
74043;BMP280;62384;53.600;10.040;2023-02-04T04:54:31;60534.59;;;3.47
74043;BMP280;62384;53.600;10.040;2023-02-04T04:56:57;60954.59;;;3.45
74043;BMP280;62384;53.600;10.040;2023-02-04T04:59:22;60906.97;;;3.42
74043;BMP280;62384;53.600;10.040;2023-02-04T05:01:47;60430.16;;;3.35
74043;BMP280;62384;53.600;10.040;2023-02-04T05:04:13;60699.78;;;3.41
74043;BMP280;62384;53.600;10.040;2023-02-04T05:06:38;60367.56;;;3.47
74043;BMP280;62384;53.600;10.040;2023-02-04T05:09:03;60711.91;;;3.37
74043;BMP280;62384;53.600;10.040;2023-02-04T05:11:29;60703.47;;;3.31
74043;BMP280;62384;53.600;10.040;2023-02-04T05:13:55;60129.78;;;3.09
74043;BMP280;62384;53.600;10.040;2023-02-04T05:16:20;59861.81;;;3.10
74043;BMP280;62384;53.600;10.040;2023-02-04T05:18:45;59678.72;;;3.01
74043;BMP280;62384;53.600;10.040;2023-02-04T05:21:11;59248.69;;;3.00
74043;BMP280;62384;53.600;10.040;2023-02-04T05:23:36;59001.31;;;2.89
74043;BMP280;62384;53.600;10.040;2023-02-04T05:26:01;58790.94;;;2.93
74043;BMP280;62384;53.600;10.040;2023-02-04T05:28:26;58959.53;;;2.89
74043;BMP280;62384;53.600;10.040;2023-02-04T05:30:52;58842.84;;;2.84
74043;BMP280;62384;53.600;10.040;2023-02-04T05:33:17;59187.75;;;2.84
74043;BMP280;62384;53.600;10.040;2023-02-04T05:35:42;58969.63;;;2.70
74043;BMP280;62384;53.600;10.040;2023-02-04T05:38:08;58823.75;;;2.74
74043;BMP280;62384;53.600;10.040;2023-02-04T05:40:33;58828.56;;;2.67
74043;BMP280;62384;53.600;10.040;2023-02-04T05:42:59;58602.72;;;2.59
74043;BMP280;62384;53.600;10.040;2023-02-04T05:45:24;57903.38;;;2.60
74043;BMP280;62384;53.600;10.040;2023-02-04T05:47:50;57851.31;;;2.54
74043;BMP280;62384;53.600;10.040;2023-02-04T05:50:15;57760.00;;;2.51
74043;BMP280;62384;53.600;10.040;2023-02-04T05:52:41;57451.34;;;2.44
74043;BMP280;62384;53.600;10.040;2023-02-04T05:55:07;57050.50;;;2.39
74043;BMP280;62384;53.600;10.040;2023-02-04T05:57:32;56904.75;;;2.30
74043;BMP280;62384;53.600;10.040;2023-02-04T05:59:57;56669.53;;;2.20
74043;BMP280;62384;53.600;10.040;2023-02-04T06:02:23;56329.28;;;2.08
74043;BMP280;62384;53.600;10.040;2023-02-04T06:04:48;55640.09;;;2.10
74043;BMP280;62384;53.600;10.040;2023-02-04T06:07:13;55709.81;;;2.06
74043;BMP280;62384;53.600;10.040;2023-02-04T06:09:39;55334.94;;;2.07
74043;BMP280;62384;53.600;10.040;2023-02-04T06:12:04;55512.50;;;2.01
74043;BMP280;62384;53.600;10.040;2023-02-04T06:14:29;55178.75;;;1.97
74043;BMP280;62384;53.600;10.040;2023-02-04T06:16:55;54894.53;;;2.00
74043;BMP280;62384;53.600;10.040;2023-02-04T06:19:20;54784.72;;;2.00
74043;BMP280;62384;53.600;10.040;2023-02-04T06:21:45;54923.59;;;2.01
74043;BMP280;62384;53.600;10.040;2023-02-04T06:24:10;55130.44;;;1.99
74043;BMP280;62384;53.600;10.040;2023-02-04T06:26:36;54548.03;;;2.00
74043;BMP280;62384;53.600;10.040;2023-02-04T06:29:01;54350.38;;;2.07
74043;BMP280;62384;53.600;10.040;2023-02-04T06:31:27;54577.63;;;2.11
74043;BMP280;62384;53.600;10.040;2023-02-04T06:33:52;55216.66;;;2.09
74043;BMP280;62384;53.600;10.040;2023-02-04T06:36:17;55304.47;;;2.08
74043;BMP280;62384;53.600;10.040;2023-02-04T06:38:42;55495.69;;;2.06
74043;BMP280;62384;53.600;10.040;2023-02-04T06:41:08;55295.44;;;2.06
74043;BMP280;62384;53.600;10.040;2023-02-04T06:43:33;55038.44;;;2.11
74043;BMP280;62384;53.600;10.040;2023-02-04T06:45:58;54920.38;;;2.17
74043;BMP280;62384;53.600;10.040;2023-02-04T06:48:23;55540.47;;;2.13
74043;BMP280;62384;53.600;10.040;2023-02-04T06:50:49;55586.50;;;2.05
74043;BMP280;62384;53.600;10.040;2023-02-04T06:53:14;55227.03;;;1.96
74043;BMP280;62384;53.600;10.040;2023-02-04T06:55:40;55205.59;;;1.98
74043;BMP280;62384;53.600;10.040;2023-02-04T06:58:05;55227.47;;;2.09
74043;BMP280;62384;53.600;10.040;2023-02-04T07:00:31;55653.59;;;2.18
74043;BMP280;62384;53.600;10.040;2023-02-04T07:02:57;56303.06;;;2.21
74043;BMP280;62384;53.600;10.040;2023-02-04T07:05:23;56512.94;;;2.23
74043;BMP280;62384;53.600;10.040;2023-02-04T07:07:49;56488.50;;;2.25
74043;BMP280;62384;53.600;10.040;2023-02-04T07:10:15;56362.50;;;2.33
74043;BMP280;62384;53.600;10.040;2023-02-04T07:12:41;56721.44;;;2.26
74043;BMP280;62384;53.600;10.040;2023-02-04T07:15:07;56695.28;;;2.38
74043;BMP280;62384;53.600;10.040;2023-02-04T07:17:32;56651.25;;;2.42
74043;BMP280;62384;53.600;10.040;2023-02-04T07:19:58;57076.59;;;2.39
74043;BMP280;62384;53.600;10.040;2023-02-04T07:22:23;57200.19;;;2.37
74043;BMP280;62384;53.600;10.040;2023-02-04T07:24:48;57240.41;;;2.29
74043;BMP280;62384;53.600;10.040;2023-02-04T07:27:13;57154.47;;;2.38
74043;BMP280;62384;53.600;10.040;2023-02-04T07:29:39;57565.75;;;2.43
74043;BMP280;62384;53.600;10.040;2023-02-04T07:32:04;58000.22;;;2.48
74043;BMP280;62384;53.600;10.040;2023-02-04T07:34:29;58286.00;;;2.52
74043;BMP280;62384;53.600;10.040;2023-02-04T07:36:55;57879.09;;;2.56
74043;BMP280;62384;53.600;10.040;2023-02-04T07:39:20;58979.22;;;2.60
74043;BMP280;62384;53.600;10.040;2023-02-04T07:41:45;59172.94;;;2.66
74043;BMP280;62384;53.600;10.040;2023-02-04T07:44:11;59234.75;;;2.62
74043;BMP280;62384;53.600;10.040;2023-02-04T07:46:36;58872.09;;;2.66
74043;BMP280;62384;53.600;10.040;2023-02-04T07:49:02;59462.47;;;2.66
74043;BMP280;62384;53.600;10.040;2023-02-04T07:51:27;59367.56;;;2.71
74043;BMP280;62384;53.600;10.040;2023-02-04T07:53:52;59921.06;;;2.70
74043;BMP280;62384;53.600;10.040;2023-02-04T07:56:17;60568.03;;;2.78
74043;BMP280;62384;53.600;10.040;2023-02-04T07:58:43;61091.97;;;2.85
74043;BMP280;62384;53.600;10.040;2023-02-04T08:01:08;61291.47;;;2.95
74043;BMP280;62384;53.600;10.040;2023-02-04T08:03:33;62040.94;;;2.96
74043;BMP280;62384;53.600;10.040;2023-02-04T08:05:59;62317.94;;;2.99
74043;BMP280;62384;53.600;10.040;2023-02-04T08:08:24;62497.28;;;3.00
74043;BMP280;62384;53.600;10.040;2023-02-04T08:10:50;62475.56;;;3.02
74043;BMP280;62384;53.600;10.040;2023-02-04T08:13:15;62231.13;;;3.07
74043;BMP280;62384;53.600;10.040;2023-02-04T08:15:41;62599.97;;;3.04
74043;BMP280;62384;53.600;10.040;2023-02-04T08:18:06;62653.81;;;3.00
74043;BMP280;62384;53.600;10.040;2023-02-04T08:20:31;62900.19;;;3.06
74043;BMP280;62384;53.600;10.040;2023-02-04T08:22:57;63208.91;;;3.17
74043;BMP280;62384;53.600;10.040;2023-02-04T08:25:22;63733.97;;;3.18
74043;BMP280;62384;53.600;10.040;2023-02-04T08:27:48;64292.09;;;3.38
74043;BMP280;62384;53.600;10.040;2023-02-04T08:30:13;65090.44;;;3.43
74043;BMP280;62384;53.600;10.040;2023-02-04T08:32:39;65667.41;;;3.46
74043;BMP280;62384;53.600;10.040;2023-02-04T08:35:05;66742.81;;;3.59
74043;BMP280;62384;53.600;10.040;2023-02-04T08:37:33;66776.31;;;3.51
74043;BMP280;62384;53.600;10.040;2023-02-04T08:39:59;66522.47;;;3.59
74043;BMP280;62384;53.600;10.040;2023-02-04T08:42:24;66270.38;;;3.64
74043;BMP280;62384;53.600;10.040;2023-02-04T08:44:50;66352.34;;;3.62
74043;BMP280;62384;53.600;10.040;2023-02-04T08:47:15;66623.88;;;3.66
74043;BMP280;62384;53.600;10.040;2023-02-04T08:49:40;67202.69;;;3.65
74043;BMP280;62384;53.600;10.040;2023-02-04T08:52:06;67266.81;;;3.74
74043;BMP280;62384;53.600;10.040;2023-02-04T08:54:33;68207.22;;;3.86
74043;BMP280;62384;53.600;10.040;2023-02-04T08:56:59;69085.88;;;4.20
74043;BMP280;62384;53.600;10.040;2023-02-04T08:59:25;69594.50;;;4.42
74043;BMP280;62384;53.600;10.040;2023-02-04T09:01:51;70401.34;;;4.54
74043;BMP280;62384;53.600;10.040;2023-02-04T09:04:23;70808.22;;;4.68
74043;BMP280;62384;53.600;10.040;2023-02-04T09:06:49;70919.38;;;4.76
74043;BMP280;62384;53.600;10.040;2023-02-04T09:09:16;71453.41;;;4.86
74043;BMP280;62384;53.600;10.040;2023-02-04T09:11:41;71592.41;;;5.10
74043;BMP280;62384;53.600;10.040;2023-02-04T09:14:07;72189.28;;;5.24
74043;BMP280;62384;53.600;10.040;2023-02-04T09:16:32;72593.44;;;5.34
74043;BMP280;62384;53.600;10.040;2023-02-04T09:18:58;74489.03;;;5.60
74043;BMP280;62384;53.600;10.040;2023-02-04T09:21:24;75014.78;;;5.60
74043;BMP280;62384;53.600;10.040;2023-02-04T09:23:50;75477.44;;;5.56
74043;BMP280;62384;53.600;10.040;2023-02-04T09:26:15;75417.94;;;5.65
74043;BMP280;62384;53.600;10.040;2023-02-04T09:28:40;75628.59;;;5.83
74043;BMP280;62384;53.600;10.040;2023-02-04T09:31:06;76703.78;;;5.94
74043;BMP280;62384;53.600;10.040;2023-02-04T09:33:32;77752.50;;;6.16
74043;BMP280;62384;53.600;10.040;2023-02-04T09:35:58;78232.16;;;6.24
74043;BMP280;62384;53.600;10.040;2023-02-04T09:38:23;81042.41;;;6.19
74043;BMP280;62384;53.600;10.040;2023-02-04T09:41:01;80972.66;;;6.08
74043;BMP280;62384;53.600;10.040;2023-02-04T09:43:29;78195.59;;;5.86
74043;BMP280;62384;53.600;10.040;2023-02-04T09:45:56;89020.59;;;6.89
74043;BMP280;62384;53.600;10.040;2023-02-04T09:48:23;132274.84;;;8.07
74043;BMP280;62384;53.600;10.040;2023-02-04T09:50:49;144361.19;;;9.39
74043;BMP280;62384;53.600;10.040;2023-02-04T09:53:20;143371.75;;;9.64
74043;BMP280;62384;53.600;10.040;2023-02-04T09:55:48;142567.91;;;9.16
74043;BMP280;62384;53.600;10.040;2023-02-04T09:58:20;143681.06;;;9.47
74043;BMP280;62384;53.600;10.040;2023-02-04T10:00:46;145243.34;;;10.21
74043;BMP280;62384;53.600;10.040;2023-02-04T10:03:18;144243.47;;;10.41
74043;BMP280;62384;53.600;10.040;2023-02-04T10:05:45;143860.56;;;10.26
74043;BMP280;62384;53.600;10.040;2023-02-04T10:08:16;143530.28;;;10.34
74043;BMP280;62384;53.600;10.040;2023-02-04T10:10:43;144703.63;;;10.90
74043;BMP280;62384;53.600;10.040;2023-02-04T10:13:15;145540.38;;;11.50
74043;BMP280;62384;53.600;10.040;2023-02-04T10:15:41;146679.66;;;11.89
74043;BMP280;62384;53.600;10.040;2023-02-04T10:18:07;146011.50;;;12.03
74043;BMP280;62384;53.600;10.040;2023-02-04T10:20:33;146837.00;;;12.57
74043;BMP280;62384;53.600;10.040;2023-02-04T10:22:58;148550.00;;;13.91
74043;BMP280;62384;53.600;10.040;2023-02-04T10:25:24;147827.97;;;13.82
74043;BMP280;62384;53.600;10.040;2023-02-04T10:27:55;146775.19;;;13.82
74043;BMP280;62384;53.600;10.040;2023-02-04T10:30:24;145744.66;;;13.92
74043;BMP280;62384;53.600;10.040;2023-02-04T10:32:51;146195.00;;;14.35
74043;BMP280;62384;53.600;10.040;2023-02-04T10:35:18;145993.97;;;15.00
74043;BMP280;62384;53.600;10.040;2023-02-04T10:37:44;143239.06;;;13.69
74043;BMP280;62384;53.600;10.040;2023-02-04T10:40:33;143099.63;;;13.07
74043;BMP280;62384;53.600;10.040;2023-02-04T10:43:09;143252.66;;;13.75
74043;BMP280;62384;53.600;10.040;2023-02-04T10:45:37;137217.13;;;11.74
74043;BMP280;62384;53.600;10.040;2023-02-04T10:48:04;135254.34;;;10.70
74043;BMP280;62384;53.600;10.040;2023-02-04T10:50:29;135549.59;;;10.45
74043;BMP280;62384;53.600;10.040;2023-02-04T10:52:57;134766.88;;;10.04
74043;BMP280;62384;53.600;10.040;2023-02-04T10:55:52;134383.41;;;9.87
74043;BMP280;62384;53.600;10.040;2023-02-04T10:58:24;133273.50;;;9.54
74043;BMP280;62384;53.600;10.040;2023-02-04T11:00:51;133551.69;;;9.21
74043;BMP280;62384;53.600;10.040;2023-02-04T11:05:49;130959.78;;;8.41
74043;BMP280;62384;53.600;10.040;2023-02-04T11:10:57;131635.16;;;8.33
74043;BMP280;62384;53.600;10.040;2023-02-04T11:13:44;130909.00;;;8.16
74043;BMP280;62384;53.600;10.040;2023-02-04T11:21:22;129831.63;;;7.96
74043;BMP280;62384;53.600;10.040;2023-02-04T11:23:48;130888.28;;;8.06
74043;BMP280;62384;53.600;10.040;2023-02-04T11:26:14;131268.38;;;8.23
74043;BMP280;62384;53.600;10.040;2023-02-04T11:39:59;131213.28;;;7.96
74043;BMP280;62384;53.600;10.040;2023-02-04T11:42:38;131949.84;;;8.18
74043;BMP280;62384;53.600;10.040;2023-02-04T11:45:12;131611.16;;;8.21
74043;BMP280;62384;53.600;10.040;2023-02-04T11:47:38;132668.09;;;8.30
74043;BMP280;62384;53.600;10.040;2023-02-04T11:50:14;136622.97;;;8.98
74043;BMP280;62384;53.600;10.040;2023-02-04T11:52:40;138961.00;;;10.15
74043;BMP280;62384;53.600;10.040;2023-02-04T11:55:05;140985.75;;;11.43
74043;BMP280;62384;53.600;10.040;2023-02-04T11:57:37;143818.00;;;13.15
74043;BMP280;62384;53.600;10.040;2023-02-04T12:00:03;140725.00;;;11.83
74043;BMP280;62384;53.600;10.040;2023-02-04T12:02:41;140328.19;;;11.61
74043;BMP280;62384;53.600;10.040;2023-02-04T12:05:12;139579.69;;;11.38
74043;BMP280;62384;53.600;10.040;2023-02-04T12:07:38;138926.44;;;11.58
74043;BMP280;62384;53.600;10.040;2023-02-04T12:12:48;134429.19;;;10.08
74043;BMP280;62384;53.600;10.040;2023-02-04T12:15:29;130410.09;;;9.10
74043;BMP280;62384;53.600;10.040;2023-02-04T12:20:25;130407.00;;;9.09
74043;BMP280;62384;53.600;10.040;2023-02-04T12:22:51;130374.03;;;8.93
74043;BMP280;62384;53.600;10.040;2023-02-04T12:25:16;128968.16;;;8.82
74043;BMP280;62384;53.600;10.040;2023-02-04T12:27:44;128934.56;;;8.65
74043;BMP280;62384;53.600;10.040;2023-02-04T12:30:10;129297.81;;;8.74
74043;BMP280;62384;53.600;10.040;2023-02-04T12:32:36;130387.41;;;8.99
74043;BMP280;62384;53.600;10.040;2023-02-04T12:35:01;130717.13;;;8.91
74043;BMP280;62384;53.600;10.040;2023-02-04T12:37:27;129285.53;;;8.68
74043;BMP280;62384;53.600;10.040;2023-02-04T12:39:52;131079.97;;;8.99
74043;BMP280;62384;53.600;10.040;2023-02-04T12:42:18;131416.97;;;8.95
74043;BMP280;62384;53.600;10.040;2023-02-04T12:44:43;129967.25;;;8.63
74043;BMP280;62384;53.600;10.040;2023-02-04T12:47:09;130672.72;;;8.69
74043;BMP280;62384;53.600;10.040;2023-02-04T12:49:34;131756.00;;;8.91
74043;BMP280;62384;53.600;10.040;2023-02-04T12:52:00;132515.91;;;9.23
74043;BMP280;62384;53.600;10.040;2023-02-04T12:54:26;132549.44;;;9.39
74043;BMP280;62384;53.600;10.040;2023-02-04T12:56:51;130721.28;;;8.93
74043;BMP280;62384;53.600;10.040;2023-02-04T12:59:17;128889.75;;;8.43
74043;BMP280;62384;53.600;10.040;2023-02-04T13:01:43;128848.00;;;8.23
74043;BMP280;62384;53.600;10.040;2023-02-04T13:04:08;129236.53;;;8.44
74043;BMP280;62384;53.600;10.040;2023-02-04T13:06:33;128482.06;;;8.13
74043;BMP280;62384;53.600;10.040;2023-02-04T13:08:59;128475.97;;;8.09
74043;BMP280;62384;53.600;10.040;2023-02-04T13:11:24;128072.81;;;7.81
74043;BMP280;62384;53.600;10.040;2023-02-04T13:13:49;128427.22;;;7.85
74043;BMP280;62384;53.600;10.040;2023-02-04T13:16:14;128041.38;;;7.65
74043;BMP280;62384;53.600;10.040;2023-02-04T13:18:42;127669.94;;;7.52
74043;BMP280;62384;53.600;10.040;2023-02-04T13:21:07;128389.69;;;7.67
74043;BMP280;62384;53.600;10.040;2023-02-04T13:23:32;128755.31;;;7.77
74043;BMP280;62384;53.600;10.040;2023-02-04T13:25:58;128428.25;;;7.86
74043;BMP280;62384;53.600;10.040;2023-02-04T13:28:23;129129.31;;;7.91
74043;BMP280;62384;53.600;10.040;2023-02-04T13:30:48;129901.50;;;8.31
74043;BMP280;62384;53.600;10.040;2023-02-04T13:33:14;129904.56;;;8.32
74043;BMP280;62384;53.600;10.040;2023-02-04T13:35:40;129184.41;;;8.18
74043;BMP280;62384;53.600;10.040;2023-02-04T13:38:05;129525.00;;;8.16
74043;BMP280;62384;53.600;10.040;2023-02-04T13:40:31;128070.75;;;7.80
74043;BMP280;62384;53.600;10.040;2023-02-04T13:42:56;128457.72;;;8.00
74043;BMP280;62384;53.600;10.040;2023-02-04T13:45:21;127359.09;;;7.69
74043;BMP280;62384;53.600;10.040;2023-02-04T13:47:47;128458.72;;;8.01
74043;BMP280;62384;53.600;10.040;2023-02-04T13:50:13;128451.63;;;7.97
74043;BMP280;62384;53.600;10.040;2023-02-04T13:52:38;127736.56;;;7.85
74043;BMP280;62384;53.600;10.040;2023-02-04T13:55:03;127378.22;;;7.79
74043;BMP280;62384;53.600;10.040;2023-02-04T13:57:29;127374.19;;;7.77
74043;BMP280;62384;53.600;10.040;2023-02-04T13:59:55;126996.94;;;7.61
74043;BMP280;62384;53.600;10.040;2023-02-04T14:02:20;126263.97;;;7.39
74043;BMP280;62384;53.600;10.040;2023-02-04T14:04:47;126268.97;;;7.41
74043;BMP280;62384;53.600;10.040;2023-02-04T14:07:13;125893.28;;;7.26
74043;BMP280;62384;53.600;10.040;2023-02-04T14:09:39;125882.34;;;7.20
74043;BMP280;62384;53.600;10.040;2023-02-04T14:12:04;126222.09;;;7.18
74043;BMP280;62384;53.600;10.040;2023-02-04T14:14:29;125881.34;;;7.20
74043;BMP280;62384;53.600;10.040;2023-02-04T14:16:55;126220.06;;;7.17
74043;BMP280;62384;53.600;10.040;2023-02-04T14:19:22;125493.06;;;6.98
74043;BMP280;62384;53.600;10.040;2023-02-04T14:21:51;125118.84;;;6.82
74043;BMP280;62384;53.600;10.040;2023-02-04T14:24:18;124786.34;;;6.89
74043;BMP280;62384;53.600;10.040;2023-02-04T14:26:44;124417.38;;;6.76
74043;BMP280;62384;53.600;10.040;2023-02-04T14:29:10;123699.56;;;6.61
74043;BMP280;62384;53.600;10.040;2023-02-04T14:31:35;124027.09;;;6.52